createdAt,value
2018-04-07T00:01:07.623Z,59.10
2018-04-07T00:03:36.042Z,59.00
2018-04-07T00:06:04.214Z,59.20
2018-04-07T00:08:32.631Z,59.80
2018-04-07T00:11:00.333Z,72.70
2018-04-07T00:13:28.457Z,60.90
2018-04-07T00:15:56.093Z,73.60
2018-04-07T00:18:24.149Z,60.10
2018-04-07T00:20:52.565Z,61.70
2018-04-07T00:23:20.224Z,75.40
2018-04-07T00:25:48.655Z,62.10
2018-04-07T00:28:17.860Z,62.70
2018-04-07T00:30:46.356Z,62.70
2018-04-07T00:33:14.784Z,63.20
2018-04-07T00:35:43.937Z,63.20
2018-04-07T00:38:12.354Z,63.70
2018-04-07T00:40:39.986Z,77.10
2018-04-07T00:43:08.503Z,63.80
2018-04-07T00:45:36.556Z,63.80
2018-04-07T00:48:04.621Z,63.30
2018-04-07T00:50:33.089Z,63.30
2018-04-07T00:53:01.911Z,63.50
2018-04-07T00:55:30.744Z,64.10
2018-04-07T00:57:58.812Z,63.60
2018-04-07T01:00:27.280Z,63.80
2018-04-07T01:02:54.980Z,77.40
2018-04-07T01:05:23.021Z,65.30
2018-04-07T01:07:51.438Z,65.40
2018-04-07T01:10:19.917Z,65.90
2018-04-07T01:12:48.393Z,66.10
2018-04-07T01:15:16.813Z,65.40
2018-04-07T01:17:45.209Z,65.30
2018-04-07T01:20:12.923Z,74.40
2018-04-07T01:22:41.010Z,65.60
2018-04-07T01:25:08.616Z,79.20
2018-04-07T01:27:37.045Z,66.30
2018-04-07T01:30:05.560Z,66.30
2018-04-07T01:32:34.361Z,66.90
2018-04-07T01:35:02.780Z,67.70
2018-04-07T01:37:31.226Z,67.60
2018-04-07T01:39:58.912Z,81.00
2018-04-07T01:42:27.362Z,67.30
2018-04-07T01:44:55.401Z,67.70
2018-04-07T01:47:23.502Z,74.40
2018-04-07T01:49:51.134Z,78.40
2018-04-07T01:52:19.168Z,70.70
2018-04-07T01:54:47.572Z,68.00
2018-04-07T01:57:15.643Z,71.70
2018-04-07T01:59:43.666Z,72.60
2018-04-07T02:02:11.289Z,83.80
2018-04-07T02:07:17.741Z,84.50
2018-04-07T02:09:45.777Z,72.20
2018-04-07T02:12:14.153Z,69.80
2018-04-07T02:14:42.605Z,69.70
2018-04-07T02:17:11.051Z,69.30
2018-04-07T02:19:39.116Z,69.40
2018-04-07T02:22:07.505Z,69.80
2018-04-07T02:24:35.894Z,69.90
2018-04-07T02:27:05.117Z,70.00
2018-04-07T02:29:32.736Z,84.10
2018-04-07T02:32:01.523Z,69.80
2018-04-07T02:34:29.181Z,78.40
2018-04-07T02:36:57.593Z,69.10
2018-04-07T02:39:26.026Z,69.00
2018-04-07T02:41:55.204Z,69.80
2018-04-07T02:44:23.612Z,69.10
2018-04-07T02:46:52.382Z,69.30
2018-04-07T02:49:20.416Z,84.10
2018-04-07T02:51:48.032Z,84.40
2018-04-07T02:54:16.102Z,70.90
2018-04-07T02:56:44.565Z,70.20
2018-04-07T02:59:12.201Z,84.70
2018-04-07T03:01:40.336Z,71.30
2018-04-07T03:04:08.710Z,72.60
2018-04-07T03:06:36.382Z,86.10
2018-04-07T03:09:04.535Z,73.90
2018-04-07T03:11:32.917Z,71.50
2018-04-07T03:14:00.928Z,73.10
2018-04-07T03:16:43.462Z,84.80
2018-04-07T03:19:11.098Z,80.80
2018-04-07T03:21:38.726Z,83.00
2018-04-07T03:24:06.799Z,68.30
2018-04-07T03:26:45.663Z,68.20
2018-04-07T03:29:13.658Z,71.60
2018-04-07T03:31:41.324Z,82.10
2018-04-07T03:34:09.778Z,67.90
2018-04-07T03:36:37.391Z,81.80
2018-04-07T03:39:06.235Z,67.90
2018-04-07T03:41:33.859Z,81.80
2018-04-07T03:44:02.279Z,68.80
2018-04-07T03:46:30.729Z,67.90
2018-04-07T03:48:58.397Z,82.20
2018-04-07T03:51:26.844Z,67.90
2018-04-07T03:53:54.471Z,82.00
2018-04-07T03:58:51.960Z,67.20
2018-04-07T04:01:19.951Z,71.90
2018-04-07T04:03:47.713Z,81.80
2018-04-07T04:06:16.855Z,68.20
2018-04-07T04:08:44.540Z,81.50
2018-04-07T04:11:12.193Z,81.70
2018-04-07T04:13:40.939Z,67.70
2018-04-07T04:16:09.340Z,68.20
2018-04-07T04:18:36.998Z,81.50
2018-04-07T04:21:04.640Z,77.70
2018-04-07T04:23:33.096Z,67.40
2018-04-07T04:26:01.090Z,69.00
2018-04-07T04:28:29.476Z,68.00
2018-04-07T04:30:57.155Z,81.20
2018-04-07T04:33:24.820Z,81.10
2018-04-07T04:35:52.560Z,81.10
2018-04-07T04:38:20.986Z,68.40
2018-04-07T04:40:48.651Z,81.60
2018-04-07T04:43:16.741Z,69.90
2018-04-07T04:45:44.348Z,81.40
2018-04-07T04:48:11.959Z,77.60
2018-04-07T04:50:40.746Z,67.70
2018-04-07T04:53:08.743Z,68.00
2018-04-07T04:55:36.830Z,72.50
2018-04-07T04:58:04.854Z,68.60
2018-04-07T05:00:32.493Z,74.10
2018-04-07T05:03:00.136Z,82.60
2018-04-07T05:05:27.799Z,82.80
2018-04-07T05:07:55.830Z,69.40
2018-04-07T05:10:23.446Z,78.20
2018-04-07T05:12:51.490Z,69.80
2018-04-07T05:15:19.583Z,69.70
2018-04-07T05:17:48.024Z,69.90
2018-04-07T05:20:16.118Z,69.80
2018-04-07T05:22:44.511Z,69.40
2018-04-07T05:25:12.919Z,69.40
2018-04-07T05:27:40.560Z,82.90
2018-04-07T05:30:08.250Z,82.90
2018-04-07T05:32:36.328Z,73.90
2018-04-07T05:35:04.005Z,82.10
2018-04-07T05:37:31.608Z,76.90
2018-04-07T05:40:01.204Z,68.10
2018-04-07T05:47:27.742Z,79.00
2018-04-07T05:49:56.109Z,66.80
2018-04-07T05:52:23.768Z,75.90
2018-04-07T05:54:51.427Z,79.40
2018-04-07T05:57:34.247Z,79.30
2018-04-07T06:00:01.878Z,78.60
2018-04-07T06:02:29.527Z,78.30
2018-04-07T06:04:57.163Z,78.10
2018-04-07T06:07:25.568Z,65.40
2018-04-07T06:09:54.027Z,64.40
2018-04-07T06:12:22.121Z,64.30
2018-04-07T06:14:49.720Z,74.60
2018-04-07T06:17:17.358Z,78.40
2018-04-07T06:19:45.424Z,67.00
2018-04-07T06:22:13.038Z,77.40
2018-04-07T06:24:41.789Z,65.20
2018-04-07T06:27:09.392Z,77.30
2018-04-07T06:29:37.786Z,66.40
2018-04-07T06:32:05.475Z,78.10
2018-04-07T06:34:33.138Z,77.50
2018-04-07T06:37:19.815Z,77.40
2018-04-07T06:39:47.559Z,76.00
2018-04-07T06:42:16.058Z,64.00
2018-04-07T06:44:43.678Z,75.10
2018-04-07T06:49:40.360Z,71.60
2018-04-07T06:52:08.183Z,70.90
2018-04-07T06:54:36.555Z,59.40
2018-04-07T06:57:04.196Z,70.40
2018-04-07T06:59:32.996Z,58.20
2018-04-07T07:02:01.824Z,58.40
2018-04-07T07:04:29.455Z,66.80
2018-04-07T07:06:57.152Z,66.40
2018-04-07T07:09:24.756Z,63.10
2018-04-07T07:11:53.531Z,55.20
2018-04-07T07:16:50.247Z,64.40
2018-04-07T07:19:17.994Z,62.40
2018-04-07T07:21:45.680Z,62.00
2018-04-07T07:24:13.396Z,59.40
2018-04-07T07:26:41.076Z,59.00
2018-04-07T07:29:08.721Z,59.00
2018-04-07T07:31:37.126Z,49.60
2018-04-07T07:34:04.756Z,55.00
2018-04-07T07:36:32.778Z,47.50
2018-04-07T07:39:01.196Z,48.60
2018-04-07T07:41:29.556Z,49.00
2018-04-07T07:43:57.167Z,56.20
2018-04-07T07:46:25.614Z,47.60
2018-04-07T07:48:53.267Z,55.70
2018-04-07T07:51:21.680Z,48.00
2018-04-07T07:53:49.755Z,49.50
2018-04-07T07:56:17.424Z,55.60
2018-04-07T07:58:45.075Z,55.90
2018-04-07T08:01:14.238Z,47.20
2018-04-07T08:03:42.301Z,46.90
2018-04-07T08:06:09.925Z,56.00
2018-04-07T08:08:37.612Z,55.10
2018-04-07T08:11:05.312Z,55.20
2018-04-07T08:13:33.348Z,46.70
2018-04-07T08:16:01.070Z,53.90
2018-04-07T08:18:28.729Z,54.70
2018-04-07T08:20:56.386Z,54.70
2018-04-07T08:23:24.077Z,54.00
2018-04-07T08:25:52.524Z,45.00
2018-04-07T08:28:20.260Z,54.10
2018-04-07T08:30:48.723Z,46.00
2018-04-07T08:33:16.332Z,53.60
2018-04-07T08:35:44.034Z,53.30
2018-04-07T08:38:12.452Z,45.70
2018-04-07T08:40:41.650Z,44.80
2018-04-07T08:43:10.080Z,44.00
2018-04-07T08:45:38.139Z,44.10
2018-04-07T08:48:07.350Z,43.50
2018-04-07T08:50:34.956Z,50.70
2018-04-07T08:53:03.349Z,43.70
2018-04-07T08:55:30.973Z,50.50
2018-04-07T08:57:58.608Z,50.10
2018-04-07T09:00:26.290Z,50.60
2018-04-07T09:02:53.939Z,50.10
2018-04-07T09:05:21.623Z,49.50
2018-04-07T09:07:49.332Z,48.00
2018-04-07T09:10:17.740Z,42.20
2018-04-07T09:12:46.134Z,41.20
2018-04-07T09:15:14.274Z,42.50
2018-04-07T09:17:41.964Z,48.70
2018-04-07T09:20:09.672Z,47.50
2018-04-07T09:22:37.308Z,46.00
2018-04-07T09:25:06.540Z,39.90
2018-04-07T09:27:34.211Z,47.00
2018-04-07T09:30:02.976Z,40.30
2018-04-07T09:32:31.445Z,41.60
2018-04-07T09:34:59.534Z,41.00
2018-04-07T09:37:27.554Z,42.00
2018-04-07T09:39:55.187Z,46.70
2018-04-07T09:42:23.598Z,40.10
2018-04-07T09:44:51.292Z,45.90
2018-04-07T09:47:19.717Z,38.90
2018-04-07T09:49:47.319Z,46.30
2018-04-07T09:54:44.746Z,41.10
2018-04-07T09:57:12.356Z,44.40
2018-04-07T09:59:40.020Z,45.90
2018-04-07T10:02:07.801Z,44.30
2018-04-07T10:04:35.513Z,44.60
2018-04-07T10:07:03.171Z,44.30
2018-04-07T10:11:59.874Z,42.30
2018-04-07T10:16:57.805Z,35.80
2018-04-07T10:19:25.506Z,42.20
2018-04-07T10:21:54.627Z,37.20
2018-04-07T10:24:22.664Z,37.50
2018-04-07T10:26:50.401Z,44.30
2018-04-07T10:29:19.567Z,37.80
2018-04-07T10:31:47.968Z,37.20
2018-04-07T10:34:15.704Z,41.70
2018-04-07T10:36:44.147Z,37.00
2018-04-07T10:39:12.337Z,37.30
2018-04-07T10:41:40.755Z,36.30
2018-04-07T10:44:08.435Z,42.50
2018-04-07T10:46:36.058Z,43.60
2018-04-07T10:49:03.763Z,40.80
2018-04-07T10:51:31.377Z,42.00
2018-04-07T10:53:59.431Z,34.60
2018-04-07T10:56:27.116Z,39.90
2018-04-07T10:58:55.500Z,35.30
2018-04-07T11:01:23.932Z,35.20
2018-04-07T11:03:51.616Z,40.60
2018-04-07T11:08:48.240Z,41.00
2018-04-07T11:11:15.920Z,39.40
2018-04-07T11:13:44.390Z,33.20
2018-04-07T11:16:12.004Z,36.30
2018-04-07T11:18:40.396Z,34.00
2018-04-07T11:21:08.819Z,32.10
2018-04-07T11:23:36.827Z,31.90
2018-04-07T11:26:05.288Z,32.60
2018-04-07T11:28:34.492Z,33.60
2018-04-07T11:31:02.110Z,38.10
2018-04-07T11:33:29.764Z,37.00
2018-04-07T11:35:57.494Z,36.50
2018-04-07T11:38:25.914Z,31.70
2018-04-07T11:40:54.370Z,29.90
2018-04-07T11:43:21.992Z,37.30
2018-04-07T11:45:50.065Z,31.50
2018-04-07T11:48:18.058Z,37.70
2018-04-07T11:50:46.468Z,31.00
2018-04-07T11:53:14.128Z,36.10
2018-04-07T11:55:42.561Z,30.00
2018-04-07T11:58:10.218Z,32.20
2018-04-07T12:00:37.883Z,36.00
2018-04-07T12:03:06.380Z,29.40
2018-04-07T12:05:34.791Z,30.00
2018-04-07T12:08:02.416Z,35.00
2018-04-07T12:10:31.219Z,30.30
2018-04-07T12:12:58.847Z,34.90
2018-04-07T12:15:27.740Z,29.60
2018-04-07T12:17:55.840Z,30.50
2018-04-07T12:20:23.483Z,34.40
2018-04-07T12:22:51.121Z,34.90
2018-04-07T12:25:18.787Z,33.80
2018-04-07T12:27:47.991Z,30.00
2018-04-07T12:30:15.621Z,32.90
2018-04-07T12:32:44.061Z,29.50
2018-04-07T12:35:12.464Z,28.60
2018-04-07T12:37:40.111Z,35.30
2018-04-07T12:40:08.886Z,29.40
2018-04-07T12:42:37.320Z,28.70
2018-04-07T12:45:06.163Z,28.40
2018-04-07T12:47:35.317Z,29.00
2018-04-07T12:50:02.965Z,34.20
2018-04-07T12:52:30.598Z,33.20
2018-04-07T12:54:58.734Z,27.90
2018-04-07T12:57:26.371Z,29.70
2018-04-07T12:59:54.041Z,32.20
2018-04-07T13:02:21.712Z,31.80
2018-04-07T13:04:49.323Z,31.50
2018-04-07T13:07:16.999Z,31.90
2018-04-07T13:09:45.367Z,26.90
2018-04-07T13:12:13.036Z,30.90
2018-04-07T13:14:40.640Z,31.20
2018-04-07T13:17:08.328Z,30.40
2018-04-07T13:19:36.787Z,27.20
2018-04-07T13:22:04.450Z,31.00
2018-04-07T13:24:32.129Z,29.60
2018-04-07T13:27:00.511Z,26.60
2018-04-07T13:29:28.976Z,26.40
2018-04-07T13:31:57.351Z,26.00
2018-04-07T13:34:25.760Z,25.40
2018-04-07T13:36:53.761Z,29.20
2018-04-07T13:39:21.395Z,29.60
2018-04-07T13:41:49.059Z,30.30
2018-04-07T13:44:16.795Z,29.00
2018-04-07T13:46:45.167Z,24.70
2018-04-07T13:49:12.826Z,29.30
2018-04-07T13:51:40.493Z,28.70
2018-04-07T13:54:08.900Z,25.90
2018-04-07T13:56:36.549Z,28.50
2018-04-07T13:59:04.945Z,25.10
2018-04-07T14:01:32.602Z,27.80
2018-04-07T14:04:00.260Z,27.00
2018-04-07T14:06:27.918Z,28.00
2018-04-07T14:08:55.546Z,27.20
2018-04-07T14:11:23.248Z,25.50
2018-04-07T14:13:50.899Z,26.00
2018-04-07T14:16:18.940Z,24.20
2018-04-07T14:18:47.371Z,23.30
2018-04-07T14:21:14.996Z,25.60
2018-04-07T14:23:42.639Z,24.70
2018-04-07T14:26:10.303Z,25.20
2018-04-07T14:28:37.912Z,24.80
2018-04-07T14:31:05.580Z,25.50
2018-04-07T14:33:33.218Z,24.20
2018-04-07T14:36:01.620Z,21.50
2018-04-07T14:38:29.246Z,22.80
2018-04-07T14:40:57.609Z,21.00
2018-04-07T14:43:25.242Z,21.90
2018-04-07T14:45:53.252Z,19.20
2018-04-07T14:48:20.967Z,21.60
2018-04-07T14:50:48.605Z,20.40
2018-04-07T14:53:16.251Z,19.60
2018-04-07T14:55:44.707Z,18.50
2018-04-07T14:58:13.221Z,18.60
2018-04-07T15:00:40.931Z,18.50
2018-04-07T15:03:08.566Z,18.20
2018-04-07T15:05:36.171Z,18.10
2018-04-07T15:08:03.870Z,18.10
2018-04-07T15:10:32.633Z,17.30
2018-04-07T15:13:00.321Z,18.00
2018-04-07T15:15:28.334Z,17.20
2018-04-07T15:17:56.344Z,17.60
2018-04-07T15:20:24.335Z,18.20
2018-04-07T15:22:52.019Z,17.20
2018-04-07T15:25:19.682Z,16.80
2018-04-07T15:27:47.740Z,17.50
2018-04-07T15:30:16.110Z,17.60
2018-04-07T15:32:43.716Z,18.40
2018-04-07T15:35:11.379Z,17.80
2018-04-07T15:37:39.047Z,18.10
2018-04-07T15:40:06.678Z,17.10
2018-04-07T15:42:34.379Z,17.50
2018-04-07T15:45:02.744Z,16.40
2018-04-07T15:47:30.412Z,16.10
2018-04-07T15:49:58.098Z,16.00
2018-04-07T15:52:26.534Z,16.90
2018-04-07T15:54:54.130Z,17.10
2018-04-07T15:57:21.762Z,17.20
2018-04-07T15:59:49.403Z,17.20
2018-04-07T16:02:17.916Z,17.30
2018-04-07T16:04:45.592Z,17.10
2018-04-07T16:07:14.036Z,16.80
2018-04-07T16:09:41.996Z,16.00
2018-04-07T16:12:09.651Z,16.00
2018-04-07T16:14:37.307Z,16.80
2018-04-07T16:17:05.745Z,16.90
2018-04-07T16:19:33.414Z,17.20
2018-04-07T16:22:01.862Z,17.80
2018-04-07T16:24:29.535Z,17.70
2018-04-07T16:26:57.172Z,18.50
2018-04-07T16:29:24.870Z,18.00
2018-04-07T16:31:52.493Z,18.10
2018-04-07T16:34:20.927Z,17.50
2018-04-07T16:36:49.375Z,18.90
2018-04-07T16:39:16.987Z,19.00
2018-04-07T16:41:45.433Z,20.00
2018-04-07T16:44:13.048Z,19.90
2018-04-07T16:46:41.141Z,19.80
2018-04-07T16:49:09.214Z,20.30
2018-04-07T16:51:38.040Z,21.00
2018-04-07T16:54:07.472Z,21.20
2018-04-07T16:56:35.927Z,21.30
2018-04-07T16:59:03.683Z,22.20
2018-04-07T17:01:32.447Z,22.40
2018-04-07T17:04:00.870Z,22.20
2018-04-07T17:06:29.111Z,23.50
2018-04-07T17:08:56.764Z,24.40
2018-04-07T17:11:24.445Z,25.50
2018-04-07T17:13:52.924Z,25.60
2018-04-07T17:16:20.922Z,26.60
2018-04-07T17:18:49.720Z,28.30
2018-04-07T17:21:17.785Z,28.70
2018-04-07T17:23:46.950Z,29.50
2018-04-07T17:26:14.610Z,32.80
2018-04-07T17:28:42.302Z,34.80
2018-04-07T17:31:10.767Z,32.20
2018-04-07T17:33:38.407Z,36.40
2018-04-07T17:36:06.798Z,33.50
2018-04-07T17:38:34.465Z,40.80
2018-04-07T17:41:02.078Z,43.30
2018-04-07T17:43:29.775Z,44.40
2018-04-07T17:45:57.485Z,45.80
2018-04-07T17:48:26.254Z,41.60
2018-04-07T17:50:54.700Z,42.00
2018-04-07T17:53:24.148Z,46.90
2018-04-07T17:55:52.640Z,43.40
2018-04-07T17:58:20.279Z,47.40
2018-04-07T18:00:48.720Z,43.00
2018-04-07T18:03:16.406Z,47.80
2018-04-07T18:05:44.857Z,44.10
2018-04-07T18:08:12.930Z,44.40
2018-04-07T18:10:40.549Z,50.50
2018-04-07T18:13:08.294Z,51.20
2018-04-07T18:15:36.340Z,46.50
2018-04-07T18:18:03.990Z,51.90
2018-04-07T18:20:32.082Z,50.30
2018-04-07T18:22:59.797Z,53.20
2018-04-07T18:25:27.443Z,53.30
2018-04-07T18:30:24.164Z,54.00
2018-04-07T18:35:20.876Z,54.60
2018-04-07T18:37:48.929Z,48.90
2018-04-07T18:40:16.597Z,55.30
2018-04-07T18:42:44.249Z,55.20
2018-04-07T18:45:13.423Z,48.90
2018-04-07T18:47:41.112Z,55.10
2018-04-07T18:50:09.212Z,50.70
2018-04-07T18:55:06.287Z,50.50
2018-04-07T18:57:35.082Z,50.80
2018-04-07T19:00:02.717Z,58.00
2018-04-07T19:02:30.368Z,58.10
2018-04-07T19:04:58.047Z,58.80
2018-04-07T19:07:25.743Z,58.70
2018-04-07T19:09:53.534Z,58.90
2018-04-07T19:12:21.945Z,52.70
2018-04-07T19:14:49.636Z,59.70
2018-04-07T19:17:18.030Z,52.80
2018-04-07T19:19:45.698Z,59.10
2018-04-07T19:22:13.376Z,59.40
2018-04-07T19:24:42.255Z,54.10
2018-04-07T19:27:09.905Z,62.20
2018-04-07T19:29:38.740Z,54.80
2018-04-07T19:32:06.760Z,54.50
2018-04-07T19:37:03.860Z,54.80
2018-04-07T19:39:32.238Z,56.60
2018-04-07T19:44:28.931Z,60.80
2018-04-07T19:46:57.364Z,56.60
2018-04-07T19:49:25.800Z,56.80
2018-04-07T19:51:53.546Z,67.10
2018-04-07T19:54:21.189Z,66.10
2018-04-07T19:56:48.856Z,66.10
2018-04-07T19:59:16.509Z,63.80
2018-04-07T20:01:44.914Z,58.20
2018-04-07T20:04:13.317Z,57.70
2018-04-07T20:06:41.012Z,66.20
2018-04-07T20:09:09.426Z,58.40
2018-04-07T20:11:38.188Z,57.30
2018-04-07T20:14:06.600Z,58.30
2018-04-07T20:16:34.271Z,67.30
2018-04-07T20:19:03.075Z,58.70
2018-04-07T20:21:30.711Z,66.90
2018-04-07T20:23:58.836Z,58.20
2018-04-07T20:26:26.446Z,63.80
2018-04-07T20:28:54.057Z,65.80
2018-04-07T20:31:22.124Z,58.40
2018-04-07T20:33:51.244Z,58.50
2018-04-07T20:36:19.667Z,58.20
2018-04-07T20:38:47.323Z,65.50
2018-04-07T20:41:15.796Z,56.90
2018-04-07T20:43:43.416Z,65.50
2018-04-07T20:46:11.056Z,61.40
2018-04-07T20:51:08.434Z,55.20
2018-04-07T20:53:36.448Z,55.70
2018-04-07T20:56:04.523Z,57.70
2018-04-07T20:58:32.555Z,57.30
2018-04-07T21:01:00.959Z,57.10
2018-04-07T21:03:29.343Z,57.70
2018-04-07T21:05:57.830Z,57.00
2018-04-07T21:10:55.464Z,58.40
2018-04-07T21:13:23.957Z,58.20
2018-04-07T21:15:52.375Z,59.10
2018-04-07T21:18:19.998Z,69.70
2018-04-07T21:20:47.665Z,69.60
2018-04-07T21:23:16.777Z,60.70
2018-04-07T21:25:44.452Z,67.40
2018-04-07T21:28:12.583Z,60.30
2018-04-07T21:30:40.616Z,61.60
2018-04-07T21:33:08.990Z,61.80
2018-04-07T21:35:37.054Z,62.80
2018-04-07T21:38:04.730Z,73.60
2018-04-07T21:40:33.923Z,63.80
2018-04-07T21:45:31.263Z,65.50
2018-04-07T21:47:59.378Z,64.40
2018-04-07T21:50:27.869Z,67.90
2018-04-07T21:52:55.686Z,76.00
2018-04-07T21:55:24.120Z,64.90
2018-04-07T21:57:52.175Z,64.50
2018-04-07T22:00:19.805Z,75.60
2018-04-07T22:02:47.444Z,76.00
2018-04-07T22:05:15.070Z,75.70
2018-04-07T22:07:43.077Z,66.30
2018-04-07T22:10:12.258Z,65.90
2018-04-07T22:12:40.382Z,67.70
2018-04-07T22:15:08.421Z,70.10
2018-04-07T22:17:37.968Z,66.40
2018-04-07T22:20:06.068Z,67.40
2018-04-07T22:22:34.271Z,77.80
2018-04-07T22:25:02.344Z,66.90
2018-04-07T22:27:30.072Z,78.50
2018-04-07T22:29:57.744Z,78.60
2018-04-07T22:32:25.368Z,78.50
2018-04-07T22:34:53.092Z,78.70
2018-04-07T22:37:21.548Z,68.10
2018-04-07T22:39:49.237Z,79.00
2018-04-07T22:42:18.087Z,68.50
2018-04-07T22:44:46.104Z,68.80
2018-04-07T22:47:24.554Z,70.10
2018-04-07T22:49:52.189Z,79.90
2018-04-07T22:52:20.581Z,70.00
2018-04-07T22:54:49.055Z,69.60
2018-04-07T22:57:17.124Z,69.70
2018-04-07T23:02:14.112Z,69.80
2018-04-07T23:04:42.582Z,69.80
2018-04-07T23:07:11.193Z,70.00
2018-04-07T23:09:38.798Z,81.00
2018-04-07T23:12:07.244Z,69.70
2018-04-07T23:14:34.863Z,81.00
2018-04-07T23:17:02.527Z,81.60
2018-04-07T23:19:30.205Z,81.70
2018-04-07T23:21:58.270Z,82.10
2018-04-07T23:24:25.913Z,82.80
2018-04-07T23:26:53.918Z,71.60
2018-04-07T23:29:21.590Z,82.90
2018-04-07T23:31:49.246Z,82.40
2018-04-07T23:34:16.870Z,82.70
2018-04-07T23:36:45.748Z,71.30
2018-04-07T23:41:42.423Z,81.10
2018-04-07T23:44:10.101Z,82.30
2018-04-07T23:46:38.136Z,71.50
2018-04-07T23:49:06.179Z,71.40
2018-04-07T23:54:03.612Z,72.20
2018-04-07T23:56:32.438Z,73.30
2018-04-07T23:59:00.477Z,76.40
